createdAt,value
2023-04-15T00:06:53.116Z,1000.4
2023-04-15T00:22:27.156Z,1000.5
2023-04-15T00:38:01.132Z,1000.4
2023-04-15T00:53:35.097Z,1000.3
2023-04-15T01:09:09.131Z,1000.2
2023-04-15T01:24:43.086Z,1000.2
2023-04-15T01:40:17.080Z,1000.2
2023-04-15T01:55:51.047Z,1000.1
2023-04-15T02:11:25.406Z,1000.1
2023-04-15T02:26:59.371Z,1000
2023-04-15T02:42:33.345Z,1000
2023-04-15T02:58:07.291Z,999.9
2023-04-15T03:13:41.242Z,999.8
2023-04-15T03:29:15.241Z,999.7
2023-04-15T03:44:49.193Z,999.6
2023-04-15T04:00:22.978Z,999.6
2023-04-15T04:15:57.060Z,999.5
2023-04-15T04:31:31.564Z,999.4
2023-04-15T04:47:05.697Z,999.4
2023-04-15T05:02:39.716Z,999.4
2023-04-15T05:18:14.794Z,999.2
2023-04-15T05:33:48.757Z,999.3
2023-04-15T05:49:22.751Z,999.5
2023-04-15T06:04:56.708Z,999.6
2023-04-15T06:20:30.731Z,999.6
2023-04-15T06:36:04.685Z,999.6
2023-04-15T06:51:38.610Z,999.7
2023-04-15T07:07:12.555Z,999.7
2023-04-15T07:22:46.540Z,999.8
2023-04-15T07:38:20.503Z,999.8
2023-04-15T07:53:54.460Z,999.9
2023-04-15T08:09:28.439Z,1000
2023-04-15T08:25:02.520Z,1000.1
2023-04-15T08:40:36.311Z,1000.3
2023-04-15T08:56:10.294Z,1000.2
2023-04-15T09:11:44.606Z,1000.3
2023-04-15T09:27:18.655Z,1000.6
2023-04-15T09:42:52.697Z,1000.6
2023-04-15T09:58:26.668Z,1000.7
2023-04-15T10:14:00.882Z,1000.6
2023-04-15T10:29:35.114Z,1000.7
2023-04-15T10:45:09.069Z,1000.7
2023-04-15T11:00:43.045Z,1000.8
2023-04-15T11:16:17.066Z,1000.9
2023-04-15T11:31:51.456Z,1001
2023-04-15T11:47:26.052Z,1001.2
2023-04-15T12:03:00.233Z,1001.5
2023-04-15T12:18:35.741Z,1001.6
2023-04-15T12:34:10.777Z,1001.7
2023-04-15T12:49:44.971Z,1001.9
2023-04-15T13:05:19.001Z,1002
2023-04-15T13:20:53.039Z,1002.1
2023-04-15T13:36:27.053Z,1002.3
2023-04-15T13:52:01.022Z,1002.3
2023-04-15T14:07:35.010Z,1002.3
2023-04-15T14:23:09.025Z,1002.4
2023-04-15T14:38:43.105Z,1002.6
2023-04-15T14:54:17.863Z,1002.8
2023-04-15T15:09:51.708Z,1002.9
2023-04-15T15:25:57.648Z,1003.1
2023-04-15T15:41:31.670Z,1003.2
2023-04-15T15:57:05.764Z,1003.5
2023-04-15T16:12:39.742Z,1003.7
2023-04-15T16:28:25.470Z,1003.9
2023-04-15T16:44:00.313Z,1004.1
2023-04-15T16:59:34.288Z,1004.3
2023-04-15T17:15:08.323Z,1004.5
2023-04-15T17:30:42.594Z,1004.6
2023-04-15T17:46:16.789Z,1004.7
2023-04-15T18:01:51.083Z,1004.9
2023-04-15T18:17:25.748Z,1005.1
2023-04-15T18:33:00.236Z,1005.3
2023-04-15T18:48:34.279Z,1005.6
2023-04-15T19:04:08.511Z,1005.8
2023-04-15T19:19:43.159Z,1006
2023-04-15T19:35:17.182Z,1006.1
2023-04-15T19:50:51.180Z,1006.2
2023-04-15T20:06:25.218Z,1006.2
2023-04-15T20:21:59.050Z,1006.3
2023-04-15T20:37:33.148Z,1006.4
2023-04-15T20:53:07.281Z,1006.5
2023-04-15T21:08:41.395Z,1006.6
2023-04-15T21:24:15.989Z,1006.8
2023-04-15T21:39:50.032Z,1006.9
2023-04-15T21:55:24.269Z,1007.1
2023-04-15T22:10:58.318Z,1007.1
2023-04-15T22:26:32.408Z,1007.2
2023-04-15T22:42:06.415Z,1007.4
2023-04-15T22:57:41.029Z,1007.5
2023-04-15T23:13:15.067Z,1007.6
2023-04-15T23:28:49.075Z,1007.5
2023-04-15T23:44:23.095Z,1007.5
2023-04-15T23:59:57.267Z,1007.6
